createdAt,value
2022-09-13T00:00:41.495Z,44.37
2022-09-13T00:03:12.640Z,44.31
2022-09-13T00:05:40.096Z,44.19
2022-09-13T00:08:07.908Z,44.31
2022-09-13T00:10:37.416Z,44.35
2022-09-13T00:15:34.824Z,44.17
2022-09-13T00:18:02.295Z,44.30
2022-09-13T00:20:28.981Z,44.13
2022-09-13T00:22:55.492Z,44.12
2022-09-13T00:25:22.032Z,44.29
2022-09-13T00:27:48.660Z,44.13
2022-09-13T00:30:15.178Z,44.24
2022-09-13T00:32:42.012Z,44.21
2022-09-13T00:35:08.892Z,44.19
2022-09-13T00:37:35.528Z,44.23
2022-09-13T00:40:02.851Z,44.04
2022-09-13T00:42:32.720Z,44.19
2022-09-13T00:45:00.598Z,44.13
2022-09-13T00:47:59.215Z,44.14
2022-09-13T00:50:30.031Z,44.23
2022-09-13T00:53:19.141Z,44.16
2022-09-13T00:55:53.944Z,44.15
2022-09-13T00:58:34.645Z,44.25
2022-09-13T01:01:03.748Z,44.25
2022-09-13T01:03:34.082Z,43.99
2022-09-13T01:06:07.763Z,44.10
2022-09-13T01:08:39.481Z,44.24
2022-09-13T01:11:11.990Z,44.15
2022-09-13T01:13:39.414Z,44.32
2022-09-13T01:16:06.244Z,44.22
2022-09-13T01:18:32.904Z,44.21
2022-09-13T01:21:12.671Z,44.07
2022-09-13T01:23:45.342Z,44.15
2022-09-13T01:26:20.975Z,44.15
2022-09-13T01:28:56.644Z,44.12
2022-09-13T01:32:01.740Z,44.23
2022-09-13T01:34:57.639Z,44.08
2022-09-13T01:37:35.018Z,44.09
2022-09-13T01:40:05.558Z,44.16
2022-09-13T01:42:58.409Z,44.06
2022-09-13T01:45:39.268Z,44.27
2022-09-13T01:48:19.983Z,44.17
2022-09-13T01:50:49.913Z,44.11
2022-09-13T01:53:23.259Z,44.28
2022-09-13T01:56:05.631Z,44.13
2022-09-13T01:58:51.825Z,44.22
2022-09-13T02:04:10.339Z,44.05
2022-09-13T02:06:51.691Z,44.13
2022-09-13T02:09:23.069Z,44.29
2022-09-13T02:11:56.268Z,44.14
2022-09-13T02:14:32.772Z,44.13
2022-09-13T02:17:05.712Z,44.29
2022-09-13T02:19:41.071Z,44.21
2022-09-13T02:22:11.575Z,44.17
2022-09-13T02:24:45.215Z,44.24
2022-09-13T02:27:19.176Z,44.10
2022-09-13T02:29:49.129Z,44.16
2022-09-13T02:32:27.604Z,44.03
2022-09-13T02:34:59.519Z,43.96
2022-09-13T02:37:30.099Z,43.97
2022-09-13T02:40:02.635Z,43.85
2022-09-13T02:42:44.324Z,44.13
2022-09-13T02:45:14.628Z,43.95
2022-09-13T02:48:16.388Z,43.92
2022-09-13T02:51:01.504Z,43.93
2022-09-13T02:53:34.414Z,43.81
2022-09-13T02:56:11.307Z,43.90
2022-09-13T02:59:01.971Z,43.87
2022-09-13T03:01:28.875Z,43.83
2022-09-13T03:03:55.546Z,43.85
2022-09-13T03:06:27.570Z,43.93
2022-09-13T03:08:58.936Z,43.89
2022-09-13T03:11:41.551Z,43.86
2022-09-13T03:14:29.473Z,43.89
2022-09-13T03:17:08.308Z,43.77
2022-09-13T03:20:07.536Z,43.90
2022-09-13T03:22:39.764Z,43.89
2022-09-13T03:25:28.752Z,43.83
2022-09-13T03:28:17.003Z,43.57
2022-09-13T03:30:51.132Z,43.89
2022-09-13T03:33:24.928Z,43.54
2022-09-13T03:35:57.024Z,43.69
2022-09-13T03:38:46.049Z,43.67
2022-09-13T03:41:20.334Z,43.68
2022-09-13T03:43:55.699Z,43.72
2022-09-13T03:46:31.079Z,43.65
2022-09-13T03:49:03.680Z,43.70
2022-09-13T03:51:30.778Z,43.70
2022-09-13T03:54:02.878Z,43.50
2022-09-13T03:56:29.364Z,43.42
2022-09-13T03:58:55.853Z,43.67
2022-09-13T04:01:24.632Z,43.63
2022-09-13T04:03:56.353Z,43.57
2022-09-13T04:06:23.786Z,43.46
2022-09-13T04:08:50.462Z,43.48
2022-09-13T04:11:17.134Z,43.48
2022-09-13T04:13:43.720Z,43.49
2022-09-13T04:16:10.342Z,43.52
2022-09-13T04:18:37.021Z,43.52
2022-09-13T04:21:04.704Z,43.42
2022-09-13T04:23:31.725Z,43.46
2022-09-13T04:26:03.379Z,43.40
2022-09-13T04:28:29.991Z,43.28
2022-09-13T04:30:56.515Z,43.36
2022-09-13T04:33:23.284Z,43.47
2022-09-13T04:35:54.688Z,43.31
2022-09-13T04:38:21.273Z,43.32
2022-09-13T04:40:53.469Z,43.54
2022-09-13T04:43:20.485Z,43.33
2022-09-13T04:45:47.041Z,43.21
2022-09-13T04:48:13.612Z,43.30
2022-09-13T04:50:40.491Z,43.44
2022-09-13T04:53:08.361Z,43.33
2022-09-13T04:55:36.678Z,43.32
2022-09-13T04:58:04.852Z,43.27
2022-09-13T05:00:31.742Z,43.25
2022-09-13T05:02:58.494Z,43.30
2022-09-13T05:05:25.864Z,43.21
2022-09-13T05:07:53.047Z,43.26
2022-09-13T05:12:32.728Z,43.28
2022-09-13T05:14:59.311Z,43.24
2022-09-13T05:17:25.805Z,43.16
2022-09-13T05:19:53.405Z,43.17
2022-09-13T05:22:22.523Z,43.30
2022-09-13T05:24:49.119Z,43.24
2022-09-13T05:27:15.616Z,43.09
2022-09-13T05:29:42.164Z,43.12
2022-09-13T05:32:08.663Z,43.13
2022-09-13T05:34:35.320Z,42.90
2022-09-13T05:37:01.912Z,42.94
2022-09-13T05:39:54.016Z,42.98
2022-09-13T05:42:15.133Z,42.96
2022-09-13T05:44:41.616Z,43.00
2022-09-13T05:47:08.273Z,42.96
2022-09-13T05:49:41.753Z,42.95
2022-09-13T05:52:16.570Z,43.13
2022-09-13T05:54:43.098Z,43.16
2022-09-13T05:57:09.692Z,43.19
2022-09-13T05:59:36.234Z,43.18
2022-09-13T06:02:02.957Z,43.30
2022-09-13T06:04:29.460Z,43.27
2022-09-13T06:06:55.997Z,43.31
2022-09-13T06:09:22.728Z,43.37
2022-09-13T06:11:49.375Z,43.27
2022-09-13T06:14:15.861Z,43.50
2022-09-13T06:16:42.535Z,43.35
2022-09-13T06:19:09.032Z,43.62
2022-09-13T06:21:35.890Z,43.42
2022-09-13T06:24:03.901Z,43.61
2022-09-13T06:26:31.749Z,43.52
2022-09-13T06:28:58.532Z,43.48
2022-09-13T06:31:27.516Z,43.37
2022-09-13T06:33:59.427Z,43.44
2022-09-13T06:36:26.511Z,43.54
2022-09-13T06:38:53.099Z,43.47
2022-09-13T06:41:23.225Z,43.65
2022-09-13T06:43:55.288Z,43.71
2022-09-13T06:46:25.229Z,43.53
2022-09-13T06:48:52.798Z,43.65
2022-09-13T06:51:22.274Z,43.70
2022-09-13T06:53:50.249Z,43.78
2022-09-13T06:56:32.501Z,43.92
2022-09-13T06:59:00.960Z,43.89
2022-09-13T07:01:33.038Z,43.96
2022-09-13T07:04:05.102Z,43.71
2022-09-13T07:06:40.672Z,43.76
2022-09-13T07:09:13.061Z,43.56
2022-09-13T07:11:41.113Z,43.62
2022-09-13T07:14:08.549Z,43.65
2022-09-13T07:16:37.964Z,43.64
2022-09-13T07:19:08.051Z,43.55
2022-09-13T07:21:38.093Z,43.66
2022-09-13T07:24:05.092Z,43.27
2022-09-13T07:26:31.970Z,43.40
2022-09-13T07:29:04.794Z,43.30
2022-09-13T07:31:34.735Z,43.59
2022-09-13T07:34:03.480Z,43.42
2022-09-13T07:36:32.091Z,43.13
2022-09-13T07:38:59.553Z,43.01
2022-09-13T07:43:45.626Z,43.24
2022-09-13T07:46:14.818Z,42.88
2022-09-13T07:48:43.585Z,42.93
2022-09-13T07:51:11.805Z,43.25
2022-09-13T07:56:08.968Z,43.46
2022-09-13T07:58:37.509Z,43.46
2022-09-13T08:01:24.655Z,43.31
2022-09-13T08:06:21.120Z,43.70
2022-09-13T08:08:48.123Z,43.44
2022-09-13T08:11:24.143Z,43.54
2022-09-13T08:13:52.221Z,43.57
2022-09-13T08:16:21.132Z,43.41
2022-09-13T08:18:50.228Z,43.30
2022-09-13T08:21:17.084Z,43.41
2022-09-13T08:23:44.078Z,43.49
2022-09-13T08:26:11.925Z,43.21
2022-09-13T08:28:40.591Z,43.27
2022-09-13T08:33:22.816Z,43.05
2022-09-13T08:35:51.787Z,42.99
2022-09-13T08:38:19.024Z,43.03
2022-09-13T08:40:51.673Z,43.15
2022-09-13T08:43:37.944Z,42.98
2022-09-13T08:46:29.909Z,42.95
2022-09-13T08:49:01.809Z,42.62
2022-09-13T08:51:31.921Z,42.70
2022-09-13T08:53:59.679Z,42.85
2022-09-13T08:57:28.584Z,42.97
2022-09-13T09:00:21.202Z,42.67
2022-09-13T09:02:59.521Z,42.94
2022-09-13T09:05:29.950Z,42.82
2022-09-13T09:10:34.040Z,42.73
2022-09-13T09:13:23.830Z,42.33
2022-09-13T09:16:00.732Z,41.40
2022-09-13T09:18:37.771Z,40.94
2022-09-13T09:21:06.973Z,40.80
2022-09-13T09:23:36.546Z,40.87
2022-09-13T09:26:24.055Z,40.55
2022-09-13T09:29:05.699Z,40.42
2022-09-13T09:35:41.757Z,40.04
2022-09-13T09:38:43.823Z,40.02
2022-09-13T09:41:22.770Z,40.06
2022-09-13T09:44:13.765Z,40.34
2022-09-13T09:46:42.272Z,40.47
2022-09-13T09:49:38.435Z,40.29
2022-09-13T09:52:10.373Z,39.96
2022-09-13T09:54:38.943Z,40.21
2022-09-13T09:57:08.094Z,40.27
2022-09-13T09:59:37.119Z,39.97
2022-09-13T10:02:17.524Z,39.54
2022-09-13T10:04:55.109Z,39.42
2022-09-13T10:07:32.809Z,39.00
2022-09-13T10:10:06.526Z,39.23
2022-09-13T10:12:35.979Z,39.34
2022-09-13T10:15:15.461Z,39.64
2022-09-13T10:17:42.032Z,39.56
2022-09-13T10:20:14.559Z,39.49
2022-09-13T10:22:42.912Z,39.94
2022-09-13T10:25:22.877Z,40.01
2022-09-13T10:28:00.346Z,40.42
2022-09-13T10:30:41.353Z,40.39
2022-09-13T10:33:25.832Z,40.15
2022-09-13T10:35:57.518Z,40.17
2022-09-13T10:38:31.927Z,40.31
2022-09-13T10:41:00.889Z,40.50
2022-09-13T10:43:29.932Z,41.00
2022-09-13T10:45:57.845Z,41.47
2022-09-13T10:48:24.647Z,41.51
2022-09-13T10:51:02.407Z,41.49
2022-09-13T10:53:40.714Z,41.32
2022-09-13T10:56:25.147Z,41.00
2022-09-13T10:59:11.796Z,41.19
2022-09-13T11:02:13.026Z,41.18
2022-09-13T11:04:45.716Z,41.06
2022-09-13T11:07:36.893Z,40.90
2022-09-13T11:10:28.030Z,41.20
2022-09-13T11:13:19.512Z,41.21
2022-09-13T11:16:06.163Z,41.14
2022-09-13T11:18:41.533Z,41.05
2022-09-13T11:21:32.857Z,41.30
2022-09-13T11:24:24.311Z,41.06
2022-09-13T11:27:15.000Z,41.13
2022-09-13T11:29:44.496Z,40.98
2022-09-13T11:32:28.048Z,41.01
2022-09-13T11:35:03.671Z,41.00
2022-09-13T11:37:39.735Z,40.26
2022-09-13T11:40:49.238Z,39.97
2022-09-13T11:43:34.564Z,39.96
2022-09-13T11:46:23.494Z,39.63
2022-09-13T11:49:20.484Z,39.58
2022-09-13T11:52:31.565Z,39.89
2022-09-13T11:55:25.522Z,39.84
2022-09-13T11:58:34.923Z,39.88
2022-09-13T12:01:08.629Z,39.70
2022-09-13T12:03:47.811Z,39.52
2022-09-13T12:06:25.845Z,39.48
2022-09-13T12:09:01.680Z,39.54
2022-09-13T12:11:34.043Z,39.41
2022-09-13T12:14:06.865Z,39.56
2022-09-13T12:16:40.485Z,39.77
2022-09-13T12:19:17.232Z,39.81
2022-09-13T12:21:44.859Z,39.75
2022-09-13T12:24:18.786Z,39.56
2022-09-13T12:26:45.329Z,39.48
2022-09-13T12:29:18.284Z,39.01
2022-09-13T12:31:44.999Z,39.06
2022-09-13T12:34:25.245Z,38.92
2022-09-13T12:36:54.862Z,38.98
2022-09-13T12:39:44.974Z,38.80
2022-09-13T12:42:38.208Z,38.57
2022-09-13T12:45:43.757Z,38.81
2022-09-13T12:48:43.568Z,38.83
2022-09-13T12:51:16.512Z,38.72
2022-09-13T12:53:52.479Z,38.72
2022-09-13T12:56:42.511Z,38.86
2022-09-13T12:59:30.310Z,39.01
2022-09-13T13:01:58.386Z,39.27
2022-09-13T13:04:33.249Z,39.57
2022-09-13T13:07:07.715Z,39.63
2022-09-13T13:09:44.982Z,40.13
2022-09-13T13:12:34.434Z,40.55
2022-09-13T13:15:04.731Z,40.73
2022-09-13T13:17:51.804Z,40.79
2022-09-13T13:20:52.285Z,40.61
2022-09-13T13:23:27.050Z,40.85
2022-09-13T13:26:21.048Z,40.86
2022-09-13T13:28:47.819Z,41.16
2022-09-13T13:31:35.482Z,41.34
2022-09-13T13:34:06.657Z,41.89
2022-09-13T13:36:39.661Z,41.76
2022-09-13T13:39:24.689Z,41.87
2022-09-13T13:42:01.485Z,41.96
2022-09-13T13:44:28.169Z,41.98
2022-09-13T13:47:14.628Z,41.96
2022-09-13T13:49:46.168Z,41.89
2022-09-13T13:52:16.567Z,41.82
2022-09-13T13:54:44.085Z,41.79
2022-09-13T13:57:41.013Z,41.71
2022-09-13T14:00:20.809Z,41.43
2022-09-13T14:02:50.470Z,41.58
2022-09-13T14:05:36.306Z,41.52
2022-09-13T14:08:33.965Z,41.50
2022-09-13T14:11:11.087Z,41.31
2022-09-13T14:13:37.783Z,41.27
2022-09-13T14:16:43.861Z,41.52
2022-09-13T14:19:31.313Z,41.37
2022-09-13T14:22:19.568Z,41.61
2022-09-13T14:24:51.415Z,41.35
2022-09-13T14:27:30.486Z,41.34
2022-09-13T14:30:04.478Z,41.53
2022-09-13T14:32:43.687Z,41.24
2022-09-13T14:35:24.680Z,41.30
2022-09-13T14:37:53.482Z,41.15
2022-09-13T14:40:27.772Z,41.26
2022-09-13T14:42:55.976Z,41.34
2022-09-13T14:45:41.817Z,41.11
2022-09-13T14:48:39.115Z,41.24
2022-09-13T14:51:23.992Z,41.03
2022-09-13T14:53:57.016Z,41.17
2022-09-13T14:56:43.056Z,41.19
2022-09-13T14:59:18.263Z,41.14
2022-09-13T15:01:45.013Z,41.30
2022-09-13T15:04:11.735Z,41.11
2022-09-13T15:06:41.029Z,41.39
2022-09-13T15:09:10.705Z,41.06
2022-09-13T15:11:57.079Z,41.08
2022-09-13T15:14:37.386Z,41.08
2022-09-13T15:17:09.589Z,40.98
2022-09-13T15:19:39.008Z,41.12
2022-09-13T15:22:14.092Z,41.19
2022-09-13T15:24:49.716Z,41.11
2022-09-13T15:27:38.025Z,41.22
2022-09-13T15:30:06.183Z,41.20
2022-09-13T15:32:43.984Z,41.13
2022-09-13T15:35:38.878Z,41.39
2022-09-13T15:38:17.548Z,41.30
2022-09-13T15:40:47.838Z,41.19
2022-09-13T15:43:14.453Z,41.04
2022-09-13T15:45:40.996Z,41.25
2022-09-13T15:48:08.337Z,41.23
2022-09-13T15:50:36.918Z,41.32
2022-09-13T15:53:11.570Z,41.38
2022-09-13T15:55:39.518Z,41.23
2022-09-13T15:58:06.050Z,41.33
2022-09-13T16:00:32.756Z,41.23
2022-09-13T16:03:00.057Z,41.45
2022-09-13T16:05:26.712Z,41.22
2022-09-13T16:07:54.939Z,41.46
2022-09-13T16:10:23.249Z,41.45
2022-09-13T16:12:51.578Z,41.63
2022-09-13T16:15:18.987Z,41.68
2022-09-13T16:17:45.640Z,41.65
2022-09-13T16:20:15.979Z,41.48
2022-09-13T16:22:43.396Z,41.48
2022-09-13T16:25:13.100Z,41.44
2022-09-13T16:27:40.708Z,41.68
2022-09-13T16:30:08.029Z,41.41
2022-09-13T16:32:34.651Z,41.45
2022-09-13T16:35:01.128Z,41.72
2022-09-13T16:37:27.685Z,41.65
2022-09-13T16:39:58.001Z,41.71
2022-09-13T16:42:24.918Z,41.74
2022-09-13T16:44:51.950Z,41.48
2022-09-13T16:47:18.885Z,41.60
2022-09-13T16:49:46.506Z,41.63
2022-09-13T16:52:13.404Z,41.61
2022-09-13T16:54:40.624Z,41.89
2022-09-13T16:57:10.343Z,41.87
2022-09-13T16:59:36.869Z,41.96
2022-09-13T17:02:03.960Z,41.94
2022-09-13T17:04:30.747Z,41.86
2022-09-13T17:06:57.612Z,42.01
2022-09-13T17:09:27.447Z,42.00
2022-09-13T17:11:54.537Z,42.01
2022-09-13T17:14:21.833Z,42.14
2022-09-13T17:16:52.624Z,41.82
2022-09-13T17:19:23.504Z,41.93
2022-09-13T17:21:51.241Z,42.00
2022-09-13T17:24:18.149Z,42.23
2022-09-13T17:26:46.906Z,42.25
2022-09-13T17:29:14.732Z,42.10
2022-09-13T17:31:43.237Z,42.03
2022-09-13T17:34:13.999Z,42.29
2022-09-13T17:36:41.675Z,42.16
2022-09-13T17:39:09.062Z,42.18
2022-09-13T17:41:36.515Z,42.36
2022-09-13T17:44:03.486Z,42.34
2022-09-13T17:46:33.630Z,42.26
2022-09-13T17:49:00.895Z,42.15
2022-09-13T17:51:30.156Z,41.98
2022-09-13T17:53:58.827Z,42.03
2022-09-13T17:56:29.723Z,42.20
2022-09-13T17:59:06.765Z,42.20
2022-09-13T18:01:37.690Z,42.47
2022-09-13T18:06:23.102Z,42.46
2022-09-13T18:08:53.532Z,43.20
2022-09-13T18:11:22.438Z,44.23
2022-09-13T18:13:52.489Z,45.37
2022-09-13T18:16:22.172Z,46.04
2022-09-13T18:18:51.734Z,46.49
2022-09-13T18:21:25.035Z,46.36
2022-09-13T18:23:54.923Z,46.18
2022-09-13T18:26:23.561Z,46.12
2022-09-13T18:28:58.342Z,46.02
2022-09-13T18:31:25.341Z,45.91
2022-09-13T18:34:12.612Z,45.90
2022-09-13T18:36:40.660Z,45.92
2022-09-13T18:39:12.341Z,45.71
2022-09-13T18:43:23.157Z,45.74
2022-09-13T18:46:04.583Z,45.33
2022-09-13T18:48:33.115Z,45.41
2022-09-13T18:51:00.554Z,45.28
2022-09-13T18:53:34.435Z,45.47
2022-09-13T18:56:10.008Z,45.69
2022-09-13T18:58:40.269Z,46.01
2022-09-13T19:01:13.792Z,46.40
2022-09-13T19:03:48.766Z,46.44
2022-09-13T19:06:27.639Z,46.20
2022-09-13T19:08:55.862Z,46.39
2022-09-13T19:11:45.404Z,46.52
2022-09-13T19:14:14.099Z,46.22
2022-09-13T19:16:41.073Z,46.31
2022-09-13T19:19:07.957Z,46.16
2022-09-13T19:21:36.150Z,46.29
2022-09-13T19:24:09.181Z,46.09
2022-09-13T19:26:39.108Z,45.92
2022-09-13T19:29:14.250Z,45.87
2022-09-13T19:31:43.658Z,45.86
2022-09-13T19:34:11.611Z,45.72
2022-09-13T19:38:58.295Z,45.81
2022-09-13T19:41:28.314Z,45.73
2022-09-13T19:44:01.454Z,45.84
2022-09-13T19:46:36.012Z,45.99
2022-09-13T19:49:03.471Z,46.00
2022-09-13T19:51:36.259Z,45.94
2022-09-13T19:54:04.915Z,45.92
2022-09-13T19:56:38.633Z,45.82
2022-09-13T19:59:07.544Z,46.14
2022-09-13T20:01:37.104Z,46.19
2022-09-13T20:04:09.973Z,46.15
2022-09-13T20:06:42.329Z,46.60
2022-09-13T20:09:10.998Z,46.68
2022-09-13T20:11:42.186Z,47.16
2022-09-13T20:14:09.954Z,47.37
2022-09-13T20:16:39.518Z,47.45
2022-09-13T20:19:29.680Z,47.51
2022-09-13T20:21:55.520Z,47.50
2022-09-13T20:24:22.203Z,47.16
2022-09-13T20:26:51.926Z,47.32
2022-09-13T20:29:19.061Z,47.30
2022-09-13T20:31:45.724Z,47.21
2022-09-13T20:34:15.140Z,46.86
2022-09-13T20:36:44.297Z,46.97
2022-09-13T20:39:12.540Z,46.62
2022-09-13T20:41:39.145Z,46.72
2022-09-13T20:44:07.697Z,46.44
2022-09-13T20:46:34.346Z,46.69
2022-09-13T20:49:01.455Z,46.41
2022-09-13T20:51:32.664Z,46.20
2022-09-13T20:54:01.085Z,46.29
2022-09-13T20:56:30.389Z,46.13
2022-09-13T20:59:00.284Z,46.13
2022-09-13T21:01:30.055Z,45.92
2022-09-13T21:03:57.448Z,46.20
2022-09-13T21:06:26.613Z,45.92
2022-09-13T21:08:54.221Z,45.80
2022-09-13T21:11:30.065Z,45.71
2022-09-13T21:14:00.052Z,46.02
2022-09-13T21:16:30.571Z,45.62
2022-09-13T21:18:57.629Z,45.80
2022-09-13T21:21:27.663Z,45.82
2022-09-13T21:23:55.765Z,45.52
2022-09-13T21:26:24.267Z,45.81
2022-09-13T21:28:51.190Z,45.64
2022-09-13T21:31:22.013Z,45.51
2022-09-13T21:33:49.538Z,45.72
2022-09-13T21:36:16.125Z,45.69
2022-09-13T21:38:42.693Z,45.62
2022-09-13T21:41:15.142Z,45.63
2022-09-13T21:43:42.556Z,45.51
2022-09-13T21:46:17.949Z,45.44
2022-09-13T21:48:47.294Z,45.30
2022-09-13T21:51:26.547Z,45.23
2022-09-13T21:53:58.725Z,44.98
2022-09-13T21:56:27.906Z,45.12
2022-09-13T21:58:58.363Z,45.10
2022-09-13T22:01:27.558Z,45.10
2022-09-13T22:03:54.709Z,44.99
2022-09-13T22:06:23.035Z,44.74
2022-09-13T22:08:55.076Z,44.83
2022-09-13T22:11:27.428Z,44.84
2022-09-13T22:13:55.355Z,44.83
2022-09-13T22:16:27.998Z,44.65
2022-09-13T22:19:08.773Z,44.48
2022-09-13T22:21:43.344Z,44.53
2022-09-13T22:24:14.410Z,44.62
2022-09-13T22:26:41.591Z,44.39
2022-09-13T22:29:09.863Z,44.67
2022-09-13T22:31:39.128Z,44.29
2022-09-13T22:34:09.929Z,44.44
2022-09-13T22:36:37.767Z,44.55
2022-09-13T22:39:05.143Z,44.54
2022-09-13T22:41:33.567Z,44.45
2022-09-13T22:44:01.864Z,44.43
2022-09-13T22:46:31.006Z,44.33
2022-09-13T22:48:57.587Z,44.24
2022-09-13T22:51:24.912Z,44.32
2022-09-13T22:53:52.987Z,44.24
2022-09-13T22:56:25.845Z,44.40
2022-09-13T22:59:00.467Z,44.02
2022-09-13T23:01:29.121Z,44.35
2022-09-13T23:03:56.792Z,44.08
2022-09-13T23:06:25.014Z,44.06
2022-09-13T23:08:54.633Z,44.38
2022-09-13T23:11:24.933Z,44.22
2022-09-13T23:13:53.684Z,44.14
2022-09-13T23:16:45.249Z,44.08
2022-09-13T23:19:13.131Z,44.03
2022-09-13T23:21:40.599Z,44.28
2022-09-13T23:24:11.172Z,44.17
2022-09-13T23:26:38.183Z,44.09
2022-09-13T23:29:04.972Z,44.04
2022-09-13T23:31:34.940Z,44.18
2022-09-13T23:34:03.792Z,43.94
2022-09-13T23:36:35.594Z,44.08
2022-09-13T23:39:03.921Z,44.02
2022-09-13T23:41:32.707Z,43.83
2022-09-13T23:44:00.221Z,43.91
2022-09-13T23:46:26.793Z,43.99
2022-09-13T23:48:53.397Z,43.80
2022-09-13T23:51:25.714Z,44.05
2022-09-13T23:53:56.758Z,43.89
2022-09-13T23:56:29.189Z,43.88
2022-09-13T23:59:00.619Z,43.76
